Time;durP1;ratioP1;P1;durP2;ratioP2;P2;SDS_P1;SDS_P2;PMS_P1;PMS_P2;Temp;Humidity;BMP_temperature;BMP_pressure;BME280_temperature;BME280_humidity;BME280_pressure;Samples;Min_cycle;Max_cycle;Signal;HPM_P1;HPM_P2
2022/07/08 00:00:25;;;;;;;5.35;2.50;;;538.00;1024.00;;;;;;5051804;28;20032;-78
2022/07/08 00:02:51;;;;;;;4.57;3.20;;;537.80;1075.20;;;;;;5051708;28;20036;-77
2022/07/08 00:05:16;;;;;;;4.78;2.25;;;537.60;1075.20;;;;;;5051052;28;20036;-77
2022/07/08 00:07:42;;;;;;;8.02;2.75;;;537.80;1049.60;;;;;;5051291;28;20059;-77
2022/07/08 00:10:08;;;;;;;3.65;2.58;;;537.60;1075.20;;;;;;5052552;28;20051;-77
2022/07/08 00:12:34;;;;;;;7.80;2.40;;;537.80;1075.20;;;;;;5052901;28;20027;-78
2022/07/08 00:15:00;;;;;;;6.28;2.45;;;537.60;1100.80;;;;;;5082223;28;20029;-78
2022/07/08 00:17:27;;;;;;;5.65;2.50;;;512.90;1075.20;;;;;;5052771;28;20525;-78
2022/07/08 00:19:53;;;;;;;4.47;2.72;;;512.80;1100.80;;;;;;5051137;28;20072;-76
2022/07/08 00:22:18;;;;;;;3.95;2.95;;;512.50;1126.40;;;;;;5053009;28;20044;-78
2022/07/08 00:24:44;;;;;;;5.15;2.80;;;512.50;1152.00;;;;;;5052624;28;20024;-78
2022/07/08 00:27:10;;;;;;;6.65;3.72;;;512.50;1152.00;;;;;;5050988;28;20033;-76
2022/07/08 00:29:36;;;;;;;6.90;4.43;;;512.70;1126.40;;;;;;5052435;28;20060;-78
2022/07/08 00:32:02;;;;;;;6.38;3.30;;;512.80;1126.40;;;;;;5052808;28;20037;-79
2022/07/08 00:34:28;;;;;;;5.18;2.25;;;537.60;1126.40;;;;;;5052466;28;20021;-79
2022/07/08 00:36:54;;;;;;;5.43;2.78;;;512.90;1126.40;;;;;;5084582;28;20159;-77
2022/07/08 00:39:19;;;;;;;8.48;3.70;;;537.90;1126.40;;;;;;5050738;28;20033;-79
2022/07/08 00:41:45;;;;;;;8.10;3.90;;;537.90;1100.80;;;;;;5051172;28;20048;-78
2022/07/08 00:44:11;;;;;;;5.50;2.90;;;538.00;1100.80;;;;;;5052158;28;20114;-77
2022/07/08 00:46:36;;;;;;;7.50;3.88;;;538.00;1100.80;;;;;;5050663;28;20021;-77
2022/07/08 00:49:02;;;;;;;5.10;3.40;;;537.90;1126.40;;;;;;5052003;28;20044;-76
2022/07/08 00:51:29;;;;;;;11.75;3.17;;;537.90;1126.40;;;;;;5081883;28;20033;-77
2022/07/08 00:53:55;;;;;;;7.47;4.82;;;537.90;1100.80;;;;;;5051434;28;20182;-76
2022/07/08 00:56:22;;;;;;;9.30;5.78;;;537.90;1100.80;;;;;;5051129;28;20025;-78
2022/07/08 00:58:49;;;;;;;7.55;4.53;;;538.00;1075.20;;;;;;5052245;28;20033;-77
2022/07/08 01:01:16;;;;;;;4.50;3.05;;;538.20;1075.20;;;;;;5050654;28;20075;-77
2022/07/08 01:03:44;;;;;;;7.18;3.38;;;538.40;1049.60;;;;;;5051962;28;20031;-77
2022/07/08 01:06:09;;;;;;;6.05;3.80;;;538.20;1049.60;;;;;;5052049;28;20029;-78
2022/07/08 01:08:35;;;;;;;5.63;3.03;;;538.30;1024.00;;;;;;5051905;28;20114;-77
2022/07/08 01:11:01;;;;;;;4.95;3.13;;;538.10;1024.00;;;;;;5081119;28;20025;-77
2022/07/08 01:13:27;;;;;;;5.35;2.67;;;537.80;1049.60;;;;;;5051525;28;20013;-77
2022/07/08 01:15:53;;;;;;;8.25;3.30;;;;;;;;;;5051746;28;20109;-77
2022/07/08 01:18:25;;;;;;;6.72;2.90;;;538.10;998.40;;;;;;5050208;28;20041;-78
2022/07/08 01:20:51;;;;;;;5.07;3.17;;;538.00;998.40;;;;;;5051555;28;20078;-77
2022/07/08 01:23:17;;;;;;;4.35;2.83;;;538.00;998.40;;;;;;5049593;28;20033;-79
2022/07/08 01:25:43;;;;;;;8.90;3.42;;;538.10;998.40;;;;;;5050211;28;20472;-77
2022/07/08 01:28:09;;;;;;;8.90;3.40;;;538.10;998.40;;;;;;5051444;28;20503;-77
2022/07/08 01:30:35;;;;;;;6.25;2.92;;;538.10;998.40;;;;;;5051458;28;20059;-77
2022/07/08 01:33:00;;;;;;;4.10;2.30;;;538.30;972.80;;;;;;5050029;28;20483;-79
2022/07/08 01:35:26;;;;;;;6.72;3.95;;;538.20;972.80;;;;;;5051157;28;20017;-78
2022/07/08 01:37:52;;;;;;;5.45;3.40;;;538.20;998.40;;;;;;5049875;28;20043;-79
2022/07/08 01:40:17;;;;;;;9.43;3.20;;;538.40;947.20;;;;;;5051394;28;20079;-79
2022/07/08 01:42:43;;;;;;;6.25;3.50;;;538.30;947.20;;;;;;5073592;28;20421;-77
2022/07/08 01:45:09;;;;;;;7.57;2.97;;;538.30;947.20;;;;;;5083026;28;20035;-77
2022/07/08 01:47:35;;;;;;;8.13;3.20;;;538.20;972.80;;;;;;5051116;28;20210;-79
2022/07/08 01:50:01;;;;;;;5.38;2.85;;;538.30;972.80;;;;;;5050514;28;20113;-76
2022/07/08 01:52:27;;;;;;;7.53;3.13;;;538.30;972.80;;;;;;5050262;28;20392;-77
2022/07/08 01:54:52;;;;;;;6.93;2.92;;;538.20;972.80;;;;;;5050909;28;20379;-78
2022/07/08 01:57:21;;;;;;;3.95;2.70;;;538.00;998.40;;;;;;5082692;28;20033;-77
2022/07/08 01:59:49;;;;;;;7.47;3.30;;;538.00;998.40;;;;;;5049202;28;20249;-76
2022/07/08 02:02:20;;;;;;;5.38;2.92;;;538.00;998.40;;;;;;5050632;28;20027;-77
2022/07/08 02:04:46;;;;;;;4.65;2.90;;;537.90;998.40;;;;;;5049011;28;20029;-78
2022/07/08 02:07:12;;;;;;;6.53;2.80;;;537.90;998.40;;;;;;5049158;28;20365;-77
2022/07/08 02:09:38;;;;;;;5.68;2.88;;;537.90;998.40;;;;;;5051016;28;20064;-77
2022/07/08 02:12:20;;;;;;;10.02;2.95;;;537.90;998.40;;;;;;5048935;28;20106;-77
2022/07/08 02:14:51;;;;;;;9.48;2.90;;;537.60;1024.00;;;;;;5049693;28;20033;-78
2022/07/08 02:17:19;;;;;;;11.02;3.67;;;537.80;998.40;;;;;;5049425;28;20407;-77
2022/07/08 02:19:45;;;;;;;9.63;3.00;;;537.70;998.40;;;;;;5048176;28;20047;-78
2022/07/08 02:22:11;;;;;;;10.90;3.42;;;537.70;998.40;;;;;;5049426;28;20376;-77
2022/07/08 02:24:37;;;;;;;7.57;2.63;;;537.80;998.40;;;;;;5049097;28;20017;-78
2022/07/08 02:27:04;;;;;;;5.43;2.88;;;537.80;998.40;;;;;;5049282;28;20021;-78
2022/07/08 02:29:30;;;;;;;9.82;3.30;;;512.90;972.80;;;;;;5048454;28;20029;-79
2022/07/08 02:31:56;;;;;;;6.43;3.28;;;512.90;972.80;;;;;;5049125;28;20472;-77
2022/07/08 02:34:22;;;;;;;10.35;3.72;;;512.90;972.80;;;;;;5051431;28;20152;-77
2022/07/08 02:36:48;;;;;;;6.80;3.38;;;512.80;972.80;;;;;;5050881;28;20096;-78
2022/07/08 02:39:13;;;;;;;8.90;2.70;;;537.60;998.40;;;;;;5051044;28;20078;-76
2022/07/08 02:41:42;;;;;;;7.82;2.83;;;512.90;972.80;;;;;;5050950;28;20021;-75
2022/07/08 02:44:08;;;;;;;8.20;3.35;;;537.60;998.40;;;;;;5051518;28;20049;-77
2022/07/08 02:46:34;;;;;;;7.40;2.97;;;512.90;972.80;;;;;;5049702;28;20468;-78
2022/07/08 02:49:00;;;;;;;14.32;3.75;;;537.60;998.40;;;;;;5051090;28;20075;-77
2022/07/08 02:51:26;;;;;;;9.63;3.95;;;537.70;972.80;;;;;;5051050;28;20582;-77
2022/07/08 02:53:51;;;;;;;7.40;3.08;;;512.90;972.80;;;;;;5051202;28;20112;-77
2022/07/08 02:56:17;;;;;;;8.55;3.03;;;512.90;972.80;;;;;;5049818;28;20111;-78
2022/07/08 02:58:43;;;;;;;13.77;3.75;;;512.80;972.80;;;;;;5050547;28;20124;-79
2022/07/08 03:01:09;;;;;;;7.85;2.60;;;512.90;972.80;;;;;;5083209;28;20025;-79
2022/07/08 03:03:34;;;;;;;9.48;2.40;;;512.80;972.80;;;;;;5049222;28;20022;-79
2022/07/08 03:06:01;;;;;;;4.78;2.53;;;537.60;998.40;;;;;;5051560;28;20025;-76
2022/07/08 03:08:26;;;;;;;9.73;3.13;;;512.90;972.80;;;;;;5054377;28;20102;-77
2022/07/08 03:10:52;;;;;;;9.40;3.97;;;512.90;972.80;;;;;;5047977;28;20029;-77
2022/07/08 03:13:18;;;;;;;5.95;3.03;;;512.90;947.20;;;;;;5044488;28;20060;-77
2022/07/08 03:15:44;;;;;;;3.33;2.38;;;537.70;972.80;;;;;;5052683;28;20021;-77
2022/07/08 03:18:09;;;;;;;8.65;3.28;;;537.60;972.80;;;;;;5054224;28;20040;-77
2022/07/08 03:20:35;;;;;;;9.45;3.00;;;537.60;947.20;;;;;;5086583;28;20090;-79
2022/07/08 03:23:01;;;;;;;7.53;2.38;;;512.90;921.60;;;;;;5086590;28;20051;-77
2022/07/08 03:25:27;;;;;;;13.00;3.35;;;512.70;947.20;;;;;;5053024;28;20146;-77
2022/07/08 03:27:53;;;;;;;5.53;2.80;;;512.90;921.60;;;;;;5052780;28;20472;-80
2022/07/08 03:30:18;;;;;;;10.82;3.90;;;512.70;947.20;;;;;;5052799;28;20461;-79
2022/07/08 03:32:44;;;;;;;11.07;3.58;;;512.80;947.20;;;;;;5085949;28;20448;-78
2022/07/08 03:35:10;;;;;;;6.40;2.75;;;512.80;947.20;;;;;;5044515;28;20022;-77
2022/07/08 03:37:43;;;;;;;9.15;3.80;;;512.60;947.20;;;;;;5052539;28;20021;-77
2022/07/08 03:42:54;;;;;;;5.25;2.72;;;512.80;947.20;;;;;;5053453;28;20042;-77
2022/07/08 03:45:19;;;;;;;12.50;2.85;;;512.60;972.80;;;;;;5052672;28;20107;-79
2022/07/08 03:47:45;;;;;;;5.45;2.78;;;512.50;972.80;;;;;;5054149;28;20028;-78
2022/07/08 03:50:12;;;;;;;7.85;3.17;;;512.60;972.80;;;;;;5053244;28;20385;-77
2022/07/08 03:52:38;;;;;;;9.80;2.88;;;512.40;998.40;;;;;;5052310;28;20029;-76
2022/07/08 03:55:05;;;;;;;4.82;3.03;;;512.30;998.40;;;;;;5038136;28;20032;-78
2022/07/08 03:57:31;;;;;;;7.68;2.65;;;512.30;998.40;;;;;;5053519;28;20119;-78
2022/07/08 03:59:57;;;;;;;4.90;2.20;;;512.20;1024.00;;;;;;5053893;28;20104;-75
2022/07/08 04:02:23;;;;;;;6.82;3.25;;;512.10;1049.60;;;;;;5053377;28;20392;-75
2022/07/08 04:04:49;;;;;;;5.13;2.78;;;512.10;1049.60;;;;;;5053494;28;20021;-75
2022/07/08 04:07:15;;;;;;;8.85;3.65;;;512.00;1049.60;;;;;;5051919;28;20025;-75
2022/07/08 04:09:41;;;;;;;5.75;3.17;;;512.10;1049.60;;;;;;5044078;28;20033;-75
2022/07/08 04:12:08;;;;;;;19.75;10.55;;;512.30;1024.00;;;;;;5048415;28;20047;-77
2022/07/08 04:14:33;;;;;;;11.35;5.97;;;512.00;1100.80;;;;;;5053138;28;20025;-74
2022/07/08 04:16:59;;;;;;;5.70;3.42;;;512.00;1075.20;;;;;;5040216;28;20033;-74
2022/07/08 04:19:25;;;;;;;5.70;3.58;;;487.30;1100.80;;;;;;5051419;28;20067;-75
2022/07/08 04:21:50;;;;;;;6.95;2.72;;;512.00;1126.40;;;;;;5051669;28;20060;-74
2022/07/08 04:24:17;;;;;;;4.55;2.72;;;487.20;1152.00;;;;;;5067494;28;20026;-74
2022/07/08 04:26:42;;;;;;;8.13;2.83;;;487.10;1152.00;;;;;;5033239;28;20026;-76
2022/07/08 04:29:08;;;;;;;4.32;2.67;;;487.10;1203.20;;;;;;5033285;28;20022;-75
2022/07/08 04:31:34;;;;;;;7.13;2.85;;;487.10;1177.60;;;;;;5053128;28;20119;-77
2022/07/08 04:33:59;;;;;;;7.32;2.80;;;487.20;1203.20;;;;;;5053052;28;20070;-78
2022/07/08 04:36:25;;;;;;;5.15;3.05;;;487.20;1203.20;;;;;;5038849;28;20021;-76
2022/07/08 04:38:51;;;;;;;6.80;3.67;;;487.20;1228.80;;;;;;5051432;28;20122;-77
2022/07/08 04:41:17;;;;;;;6.07;3.08;;;487.10;1254.40;;;;;;5050467;28;20463;-79
2022/07/08 04:43:43;;;;;;;5.95;2.20;;;487.10;1254.40;;;;;;5051014;28;20061;-79
2022/07/08 04:46:13;;;;;;;9.10;3.85;;;486.90;1280.00;;;;;;5052923;28;20029;-77
2022/07/08 04:48:39;;;;;;;6.32;3.28;;;487.00;1280.00;;;;;;5052883;28;20380;-78
2022/07/08 04:51:05;;;;;;;8.48;3.00;;;486.90;1280.00;;;;;;5051377;28;20452;-78
2022/07/08 04:53:31;;;;;;;4.13;2.47;;;487.10;1280.00;;;;;;5052440;28;20100;-77
2022/07/08 04:55:57;;;;;;;5.38;2.90;;;487.10;1305.60;;;;;;5052750;28;20013;-77
2022/07/08 04:58:22;;;;;;;6.25;3.40;;;487.10;1305.60;;;;;;5052292;28;20039;-77
2022/07/08 05:00:48;;;;;;;6.45;3.83;;;487.00;1331.20;;;;;;5080570;28;20025;-77
2022/07/08 05:03:14;;;;;;;7.13;3.58;;;487.00;1331.20;;;;;;5041345;28;20033;-76
2022/07/08 05:05:40;;;;;;;4.18;2.92;;;486.90;1356.80;;;;;;5052386;28;20036;-75
2022/07/08 05:08:05;;;;;;;6.97;3.00;;;487.00;1331.20;;;;;;5043222;28;20345;-75
2022/07/08 05:10:31;;;;;;;3.35;2.58;;;486.90;1356.80;;;;;;5047377;28;20058;-75
2022/07/08 05:12:57;;;;;;;7.03;2.92;;;486.90;1331.20;;;;;;5052061;28;20021;-75
2022/07/08 05:15:24;;;;;;;6.18;3.00;;;487.00;1356.80;;;;;;5078833;28;20035;-76
2022/07/08 05:17:52;;;;;;;5.53;2.92;;;486.80;1356.80;;;;;;5045018;28;20048;-75
2022/07/08 05:20:19;;;;;;;5.35;3.83;;;487.00;1331.20;;;;;;5049794;28;20055;-74
2022/07/08 05:22:45;;;;;;;9.25;3.63;;;487.10;1356.80;;;;;;5037856;28;20091;-75
2022/07/08 05:25:11;;;;;;;4.25;3.40;;;487.10;1331.20;;;;;;5044101;28;20396;-76
2022/07/08 05:27:37;;;;;;;3.95;2.78;;;487.10;1331.20;;;;;;5046275;28;20029;-76
2022/07/08 05:30:05;;;;;;;5.97;3.05;;;486.90;1356.80;;;;;;5040925;28;20031;-75
2022/07/08 05:32:31;;;;;;;9.85;3.75;;;486.80;1382.40;;;;;;5046481;28;20257;-74
2022/07/08 05:34:57;;;;;;;7.72;3.58;;;486.90;1382.40;;;;;;5035992;28;21178;-74
2022/07/08 05:37:23;;;;;;;8.70;3.67;;;486.90;1382.40;;;;;;5047403;28;20044;-75
2022/07/08 05:39:48;;;;;;;8.15;3.30;;;487.10;1382.40;;;;;;5039928;28;20043;-76
2022/07/08 05:42:14;;;;;;;20.85;4.13;;;487.20;1382.40;;;;;;5050000;28;20061;-75
2022/07/08 05:44:40;;;;;;;9.95;3.13;;;487.10;1408.00;;;;;;5050341;28;20467;-75
2022/07/08 05:47:09;;;;;;;6.80;3.42;;;487.10;1408.00;;;;;;5049024;28;20008;-75
2022/07/08 05:49:36;;;;;;;4.57;3.45;;;487.10;1408.00;;;;;;5051584;28;20044;-76
2022/07/08 05:52:03;;;;;;;4.93;4.38;;;487.30;1408.00;;;;;;5046022;28;20074;-74
2022/07/08 05:54:29;;;;;;;5.75;4.43;;;487.10;1433.60;;;;;;5045330;28;20025;-76
2022/07/08 05:56:54;;;;;;;7.35;4.63;;;487.00;1459.20;;;;;;5046299;28;20461;-76
2022/07/08 05:59:20;;;;;;;5.72;4.15;;;487.00;1459.20;;;;;;5044951;28;20043;-77
2022/07/08 06:01:46;;;;;;;7.68;4.10;;;487.10;1433.60;;;;;;5048748;28;20103;-75
2022/07/08 06:04:11;;;;;;;9.07;5.85;;;487.10;1433.60;;;;;;5046928;28;20024;-76
2022/07/08 06:06:37;;;;;;;5.35;4.47;;;487.10;1433.60;;;;;;5045962;28;20025;-75
2022/07/08 06:09:03;;;;;;;6.20;4.45;;;487.20;1459.20;;;;;;5046199;28;20045;-75
2022/07/08 06:11:29;;;;;;;6.22;5.30;;;487.20;1459.20;;;;;;5044003;28;20032;-75
2022/07/08 06:13:54;;;;;;;6.93;4.82;;;487.20;1459.20;;;;;;5048086;28;20078;-74
2022/07/08 06:16:20;;;;;;;6.15;5.55;;;487.20;1459.20;;;;;;5056838;28;20027;-75
2022/07/08 06:18:46;;;;;;;6.18;4.65;;;487.00;1484.80;;;;;;5080132;28;20032;-76
2022/07/08 06:21:12;;;;;;;8.18;5.40;;;487.20;1459.20;;;;;;5052882;28;20461;-76
2022/07/08 06:23:37;;;;;;;8.75;7.30;;;487.30;1459.20;;;;;;5046484;28;20028;-75
2022/07/08 06:26:03;;;;;;;10.13;7.90;;;487.30;1459.20;;;;;;5040298;28;20024;-75
2022/07/08 06:28:29;;;;;;;8.93;5.93;;;487.20;1459.20;;;;;;5049336;28;20021;-74
2022/07/08 06:30:55;;;;;;;8.95;6.97;;;487.20;1459.20;;;;;;5047970;28;20375;-76
2022/07/08 06:33:21;;;;;;;7.97;6.85;;;487.20;1459.20;;;;;;5042606;28;20024;-76
2022/07/08 06:35:47;;;;;;;10.60;7.40;;;512.00;1459.20;;;;;;5056996;28;20021;-75
2022/07/08 06:38:13;;;;;;;6.80;6.20;;;512.10;1433.60;;;;;;5050716;28;20045;-76
2022/07/08 06:40:39;;;;;;;6.68;5.88;;;487.20;1433.60;;;;;;5051646;28;20104;-76
2022/07/08 06:43:04;;;;;;;7.18;6.47;;;487.20;1459.20;;;;;;5057358;28;20036;-76
2022/07/08 06:45:32;;;;;;;10.38;6.50;;;487.20;1433.60;;;;;;5059373;28;20068;-76
2022/07/08 06:47:58;;;;;;;9.40;6.60;;;487.20;1433.60;;;;;;5054453;28;20021;-76
2022/07/08 06:50:24;;;;;;;8.25;7.45;;;512.00;1408.00;;;;;;5056646;28;20028;-77
2022/07/08 06:52:50;;;;;;;10.13;8.15;;;512.00;1433.60;;;;;;5048083;28;20063;-77
2022/07/08 06:55:15;;;;;;;12.05;7.93;;;512.10;1433.60;;;;;;5063878;28;20460;-76
2022/07/08 06:57:41;;;;;;;7.68;6.97;;;512.10;1408.00;;;;;;5047795;28;20048;-76
2022/07/08 07:00:08;;;;;;;9.68;6.65;;;512.20;1433.60;;;;;;5057343;28;20080;-76
2022/07/08 07:02:33;;;;;;;7.88;6.15;;;512.30;1408.00;;;;;;5044103;28;20052;-76
2022/07/08 07:05:00;;;;;;;9.02;7.90;;;512.00;1433.60;;;;;;5045815;28;20060;-75
2022/07/08 07:07:26;;;;;;;10.30;6.57;;;512.10;1433.60;;;;;;5052310;28;20040;-75
2022/07/08 07:09:51;;;;;;;7.35;5.93;;;512.30;1433.60;;;;;;5051505;28;20032;-75
2022/07/08 07:12:17;;;;;;;7.85;6.18;;;512.30;1408.00;;;;;;5050418;28;20475;-75
2022/07/08 07:14:43;;;;;;;11.73;7.65;;;512.10;1433.60;;;;;;5044006;28;20021;-74
2022/07/08 07:17:08;;;;;;;7.78;6.97;;;512.20;1459.20;;;;;;5054030;28;20460;-75
2022/07/08 07:19:34;;;;;;;7.47;6.65;;;512.10;1433.60;;;;;;5052597;28;20041;-75
2022/07/08 07:22:00;;;;;;;10.00;6.72;;;512.10;1459.20;;;;;;5053449;28;20030;-75
2022/07/08 07:24:25;;;;;;;7.88;6.93;;;512.10;1459.20;;;;;;5054167;28;20028;-76
2022/07/08 07:26:51;;;;;;;10.27;7.97;;;512.40;1408.00;;;;;;5051898;28;20042;-75
2022/07/08 07:29:17;;;;;;;10.50;7.07;;;512.60;1408.00;;;;;;5045301;28;20017;-76
2022/07/08 07:31:42;;;;;;;9.30;7.38;;;512.40;1433.60;;;;;;5054372;28;20037;-75
2022/07/08 07:34:08;;;;;;;7.05;6.35;;;512.30;1433.60;;;;;;5053805;28;20035;-76
2022/07/08 07:36:34;;;;;;;7.03;6.22;;;512.20;1433.60;;;;;;5045756;28;20021;-78
2022/07/08 07:38:59;;;;;;;9.15;7.15;;;512.00;1459.20;;;;;;5051015;28;20047;-76
2022/07/08 07:41:25;;;;;;;9.73;8.70;;;512.30;1433.60;;;;;;5049455;28;20029;-77
2022/07/08 07:43:51;;;;;;;7.45;6.70;;;512.40;1408.00;;;;;;5042943;28;20116;-76
2022/07/08 07:46:17;;;;;;;8.13;7.43;;;512.60;1408.00;;;;;;5038441;28;20029;-75
2022/07/08 07:48:43;;;;;;;8.95;8.07;;;512.40;1408.00;;;;;;5053786;28;20066;-75
2022/07/08 07:51:09;;;;;;;9.38;8.48;;;512.30;1433.60;;;;;;5053000;28;20021;-75
2022/07/08 07:53:35;;;;;;;7.63;6.43;;;512.50;1408.00;;;;;;5049251;28;20036;-74
2022/07/08 07:56:01;;;;;;;8.10;7.35;;;512.30;1408.00;;;;;;5041155;28;20112;-75
2022/07/08 07:58:27;;;;;;;8.90;6.78;;;512.30;1408.00;;;;;;5053025;28;20436;-75
2022/07/08 08:00:53;;;;;;;7.63;6.93;;;512.10;1433.60;;;;;;5051197;28;20444;-75
2022/07/08 08:03:19;;;;;;;8.15;6.78;;;512.20;1433.60;;;;;;5052849;28;20391;-74
2022/07/08 08:05:45;;;;;;;8.50;7.13;;;512.40;1408.00;;;;;;5053070;28;20017;-74
2022/07/08 08:08:11;;;;;;;8.15;6.20;;;512.40;1408.00;;;;;;5053359;28;20132;-75
2022/07/08 08:10:37;;;;;;;11.02;6.55;;;512.30;1382.40;;;;;;5052284;28;20024;-76
2022/07/08 08:13:03;;;;;;;9.02;6.05;;;512.30;1408.00;;;;;;5037832;28;20017;-75
2022/07/08 08:15:30;;;;;;;8.30;6.07;;;512.00;1433.60;;;;;;5050495;28;20155;-76
2022/07/08 08:17:59;;;;;;;9.10;6.25;;;512.30;1408.00;;;;;;5052258;28;20037;-74
2022/07/08 08:20:28;;;;;;;8.82;6.18;;;512.40;1408.00;;;;;;5052229;28;20021;-75
2022/07/08 08:22:54;;;;;;;8.30;7.05;;;512.50;1382.40;;;;;;5052142;28;20025;-76
2022/07/08 08:25:20;;;;;;;8.07;7.25;;;512.80;1382.40;;;;;;5052698;28;20078;-76
2022/07/08 08:27:46;;;;;;;7.07;6.38;;;512.40;1408.00;;;;;;5085423;28;20048;-75
2022/07/08 08:30:13;;;;;;;7.15;6.20;;;512.50;1408.00;;;;;;5053100;28;20115;-76
2022/07/08 08:32:38;;;;;;;6.50;5.90;;;512.40;1408.00;;;;;;5053469;28;20021;-75
2022/07/08 08:35:05;;;;;;;7.97;6.72;;;512.50;1408.00;;;;;;5052738;28;20349;-75
2022/07/08 08:37:32;;;;;;;6.95;6.13;;;512.40;1408.00;;;;;;5052340;28;20499;-76
2022/07/08 08:40:05;;;;;;;8.23;5.95;;;512.40;1408.00;;;;;;5038531;28;20119;-74
2022/07/08 08:42:32;;;;;;;7.00;6.30;;;512.50;1408.00;;;;;;5052733;28;20032;-74
2022/07/08 08:45:03;;;;;;;6.70;6.05;;;512.10;1433.60;;;;;;5038596;28;20055;-75
2022/07/08 08:47:31;;;;;;;7.85;7.10;;;512.20;1433.60;;;;;;5052407;28;20053;-74
2022/07/08 08:49:57;;;;;;;7.80;7.00;;;512.30;1408.00;;;;;;5051107;28;20021;-75
2022/07/08 08:52:24;;;;;;;7.38;6.68;;;512.50;1408.00;;;;;;5052186;28;20056;-75
2022/07/08 08:54:51;;;;;;;7.07;6.38;;;512.50;1408.00;;;;;;5052747;28;20029;-75
2022/07/08 08:57:18;;;;;;;6.70;6.00;;;512.60;1382.40;;;;;;5051979;28;20025;-78
2022/07/08 08:59:46;;;;;;;10.88;6.68;;;512.80;1382.40;;;;;;5052381;28;20417;-75
2022/07/08 09:02:12;;;;;;;6.90;6.20;;;512.80;1382.40;;;;;;5084364;28;20464;-75
2022/07/08 09:04:39;;;;;;;7.78;6.97;;;512.80;1356.80;;;;;;5041877;28;20117;-75
2022/07/08 09:07:05;;;;;;;6.85;6.15;;;512.90;1356.80;;;;;;5048165;28;20028;-75
2022/07/08 09:09:30;;;;;;;9.40;7.20;;;512.70;1382.40;;;;;;5050485;28;20053;-75
2022/07/08 09:11:56;;;;;;;8.48;6.45;;;512.90;1408.00;;;;;;5052629;28;20025;-76
2022/07/08 09:14:23;;;;;;;7.30;5.20;;;537.60;1408.00;;;;;;5052098;28;20021;-76
2022/07/08 09:17:14;;;;;;;5.45;4.95;;;512.70;1356.80;;;;;;5040041;28;20025;-74
2022/07/08 09:19:47;;;;;;;7.43;6.43;;;512.50;1382.40;;;;;;5039609;28;20035;-75
2022/07/08 09:22:12;;;;;;;11.80;7.68;;;512.70;1356.80;;;;;;5051820;28;20064;-74
2022/07/08 09:24:41;;;;;;;9.45;7.90;;;512.70;1382.40;;;;;;5051720;28;20056;-75
2022/07/08 09:27:08;;;;;;;11.52;7.93;;;512.90;1408.00;;;;;;5037499;28;20534;-74
2022/07/08 09:29:35;;;;;;;9.85;7.60;;;537.90;1408.00;;;;;;5050366;28;20019;-75
2022/07/08 09:32:11;;;;;;;8.35;7.03;;;512.70;1433.60;;;;;;5039118;28;20029;-75
2022/07/08 09:34:37;;;;;;;11.73;8.10;;;512.70;1459.20;;;;;;5050399;28;20017;-77
2022/07/08 09:37:11;;;;;;;14.32;7.65;;;512.80;1433.60;;;;;;5051474;28;20412;-75
2022/07/08 09:39:37;;;;;;;9.65;7.45;;;512.90;1433.60;;;;;;5083720;28;20078;-75
2022/07/08 09:42:07;;;;;;;6.95;6.25;;;512.70;1484.80;;;;;;5042141;28;20029;-77
2022/07/08 09:44:34;;;;;;;9.07;6.35;;;512.60;1459.20;;;;;;5047907;28;20056;-75
2022/07/08 09:46:59;;;;;;;6.88;6.07;;;512.40;1484.80;;;;;;5050170;28;20063;-75
2022/07/08 09:49:33;;;;;;;6.85;6.13;;;512.50;1510.40;;;;;;5051499;28;20025;-75
2022/07/08 09:51:59;;;;;;;8.43;5.15;;;512.70;1408.00;;;;;;5051082;28;20028;-75
2022/07/08 09:54:27;;;;;;;5.57;4.50;;;512.50;1459.20;;;;;;5051316;28;20154;-76
2022/07/08 09:57:01;;;;;;;6.15;5.10;;;512.70;1408.00;;;;;;5050953;28;20460;-75
2022/07/08 09:59:28;;;;;;;8.73;6.10;;;512.80;1408.00;;;;;;5049150;28;20037;-75
2022/07/08 10:01:54;;;;;;;5.22;4.65;;;537.90;1382.40;;;;;;5050920;28;20065;-76
2022/07/08 10:04:22;;;;;;;9.77;5.32;;;537.90;1356.80;;;;;;5050970;28;20426;-75
2022/07/08 10:06:48;;;;;;;6.55;4.97;;;537.80;1356.80;;;;;;5050682;28;20017;-75
2022/07/08 10:09:14;;;;;;;8.27;5.65;;;538.00;1331.20;;;;;;5050507;28;20110;-76
2022/07/08 10:11:41;;;;;;;14.95;6.50;;;538.00;1331.20;;;;;;5080650;28;20024;-75
2022/07/08 10:14:08;;;;;;;7.88;6.40;;;537.90;1331.20;;;;;;5038346;28;20490;-74
2022/07/08 10:16:35;;;;;;;9.32;6.90;;;538.00;1305.60;;;;;;5055059;28;20471;-75
2022/07/08 10:19:05;;;;;;;11.40;8.57;;;538.10;1305.60;;;;;;5073232;28;20037;-74
2022/07/08 10:21:34;;;;;;;9.23;6.95;;;538.30;1305.60;;;;;;5055471;28;20036;-75
2022/07/08 10:24:01;;;;;;;10.63;7.63;;;537.90;1305.60;;;;;;5053773;28;20075;-75
2022/07/08 10:26:40;;;;;;;9.63;8.48;;;538.00;1305.60;;;;;;5055153;28;20039;-75
2022/07/08 10:29:08;;;;;;;10.30;8.18;;;538.10;1280.00;;;;;;5054524;28;20025;-74
2022/07/08 10:31:52;;;;;;;12.68;9.32;;;538.10;1331.20;;;;;;5055321;28;20028;-75
2022/07/08 10:34:37;;;;;;;8.98;8.18;;;538.00;1331.20;;;;;;5058374;28;20392;-75
2022/07/08 10:37:03;;;;;;;9.13;8.23;;;537.80;1356.80;;;;;;5041120;28;20025;-75
2022/07/08 10:39:49;;;;;;;12.38;11.18;;;537.90;1382.40;;;;;;5054674;28;20070;-76
2022/07/08 10:42:20;;;;;;;11.65;10.45;;;537.70;1331.20;;;;;;5054292;28;20037;-75
2022/07/08 10:44:48;;;;;;;11.40;10.23;;;512.70;1356.80;;;;;;5053513;28;20476;-76
2022/07/08 10:47:16;;;;;;;12.15;11.10;;;512.70;1408.00;;;;;;5054669;28;20029;-76
2022/07/08 10:49:42;;;;;;;13.48;10.90;;;512.50;1408.00;;;;;;5053587;28;20356;-74
2022/07/08 10:52:08;;;;;;;11.52;10.07;;;512.80;1382.40;;;;;;5086187;28;20025;-74
2022/07/08 10:54:37;;;;;;;12.60;11.27;;;512.70;1408.00;;;;;;5052511;28;20101;-75
2022/07/08 10:57:27;;;;;;;13.15;11.90;;;512.80;1408.00;;;;;;5063932;28;20024;-76
2022/07/08 11:00:15;;;;;;;15.48;10.73;;;512.80;1408.00;;;;;;5053039;28;20041;-75
2022/07/08 11:02:46;;;;;;;11.95;10.85;;;512.90;1408.00;;;;;;5054000;28;20035;-74
2022/07/08 11:05:40;;;;;;;11.57;10.38;;;537.60;1382.40;;;;;;5053230;28;20400;-77
2022/07/08 11:08:23;;;;;;;14.15;12.70;;;537.80;1408.00;;;;;;5054014;28;20124;-75
2022/07/08 11:10:53;;;;;;;14.55;13.07;;;537.80;1408.00;;;;;;5053461;28;20523;-75
2022/07/08 11:13:20;;;;;;;18.95;14.57;;;537.70;1382.40;;;;;;5054278;28;20147;-75
2022/07/08 11:15:46;;;;;;;14.98;13.38;;;538.00;1382.40;;;;;;5062469;28;20025;-75
2022/07/08 11:18:19;;;;;;;15.20;13.65;;;537.70;1382.40;;;;;;5051950;28;20041;-76
2022/07/08 11:20:45;;;;;;;13.65;12.45;;;512.90;1382.40;;;;;;5053074;28;20226;-75
2022/07/08 11:23:11;;;;;;;14.68;12.90;;;537.70;1408.00;;;;;;5053202;28;20456;-75
2022/07/08 11:25:37;;;;;;;20.98;14.80;;;512.90;1382.40;;;;;;5050458;28;20329;-75
2022/07/08 11:28:17;;;;;;;13.13;11.82;;;537.60;1408.00;;;;;;5038220;28;20137;-75
2022/07/08 11:30:43;;;;;;;12.75;11.45;;;512.90;1382.40;;;;;;5051325;28;20032;-76
2022/07/08 11:33:08;;;;;;;15.05;13.65;;;537.60;1408.00;;;;;;5053590;28;20021;-77
2022/07/08 11:35:38;;;;;;;13.63;12.43;;;537.60;1408.00;;;;;;5052169;28;20032;-77
2022/07/08 11:38:04;;;;;;;13.32;11.43;;;537.90;1382.40;;;;;;5050474;28;20071;-76
2022/07/08 11:40:40;;;;;;;13.50;12.35;;;537.90;1382.40;;;;;;5033668;28;20057;-79
2022/07/08 11:43:06;;;;;;;12.05;11.02;;;537.80;1408.00;;;;;;5047391;28;20075;-79
2022/07/08 11:45:32;;;;;;;12.32;11.15;;;537.70;1408.00;;;;;;5053751;28;20028;-77
2022/07/08 11:48:06;;;;;;;12.30;11.10;;;537.60;1433.60;;;;;;5053943;28;20025;-77
2022/07/08 11:50:32;;;;;;;13.27;11.98;;;537.60;1433.60;;;;;;5079929;28;20029;-77
2022/07/08 11:52:58;;;;;;;14.25;12.82;;;537.60;1408.00;;;;;;5043955;28;20386;-78
2022/07/08 11:55:23;;;;;;;13.93;12.63;;;512.90;1382.40;;;;;;5038222;28;20025;-78
2022/07/08 11:57:49;;;;;;;12.77;11.65;;;537.60;1433.60;;;;;;5052177;28;20048;-77
2022/07/08 12:00:15;;;;;;;13.50;12.20;;;512.90;1382.40;;;;;;5037975;28;20025;-79
2022/07/08 12:02:41;;;;;;;16.08;14.38;;;537.80;1433.60;;;;;;5044369;28;20026;-78
2022/07/08 12:05:11;;;;;;;13.43;12.02;;;537.60;1433.60;;;;;;5052051;28;20033;-76
2022/07/08 12:07:37;;;;;;;15.70;14.13;;;512.90;1433.60;;;;;;5039414;28;20045;-75
2022/07/08 12:10:05;;;;;;;19.67;17.73;;;512.80;1382.40;;;;;;5051811;28;20048;-76
2022/07/08 12:12:34;;;;;;;15.05;13.55;;;512.90;1382.40;;;;;;5051778;28;20024;-75
2022/07/08 12:15:16;;;;;;;15.63;13.95;;;512.90;1382.40;;;;;;5085459;28;20154;-75
2022/07/08 12:17:42;;;;;;;13.93;12.57;;;537.70;1382.40;;;;;;5053328;28;20499;-74